Time;durP1;ratioP1;P1;durP2;ratioP2;P2;SDS_P1;SDS_P2;PMS_P1;PMS_P2;Temp;Humidity;BMP_temperature;BMP_pressure;BME280_temperature;BME280_humidity;BME280_pressure;Samples;Min_cycle;Max_cycle;Signal;HPM_P1;HPM_P2
2022/02/22 00:00:35;;;;;;;;;11.00;8.25;;;;;10.90;57.44;102203.25;2393190;28;45253;-78
2022/02/22 00:01:46;;;;;;;;;14.50;11.25;;;;;10.88;57.78;102206.78;2393243;28;45993;-78
2022/02/22 00:02:56;;;;;;;;;15.50;10.50;;;;;10.85;57.69;102204.16;2393443;28;45231;-78
2022/02/22 00:04:07;;;;;;;;;13.75;9.00;;;;;10.83;57.71;102206.81;2393126;28;45348;-78
2022/02/22 00:05:18;;;;;;;;;13.75;10.00;;;;;10.82;57.77;102207.69;2394775;28;45458;-78
2022/02/22 00:06:28;;;;;;;;;21.00;11.00;;;;;10.77;58.04;102213.00;2393275;28;46338;-79
2022/02/22 00:07:39;;;;;;;;;12.50;7.75;;;;;10.73;57.76;102207.81;2393170;28;45227;-78
2022/02/22 00:08:49;;;;;;;;;13.00;10.50;;;;;10.72;58.12;102195.56;2393171;28;46708;-78
2022/02/22 00:10:00;;;;;;;;;14.00;12.00;;;;;10.69;58.14;102201.72;2393137;28;45184;-78
2022/02/22 00:11:10;;;;;;;;;10.25;7.25;;;;;10.66;58.18;102205.25;2393140;28;46446;-78
2022/02/22 00:12:21;;;;;;;;;14.25;10.00;;;;;10.64;58.29;102201.72;2393505;28;45168;-78
2022/02/22 00:13:31;;;;;;;;;13.50;11.50;;;;;10.66;58.47;102214.88;2392704;28;46384;-78
2022/02/22 00:14:43;;;;;;;;;15.00;7.25;;;;;10.67;58.26;102209.59;2393280;28;44683;-78
2022/02/22 00:15:55;;;;;;;;;9.25;9.25;;;;;10.66;58.21;102207.00;2393166;28;45405;-79
2022/02/22 00:17:05;;;;;;;;;14.25;9.25;;;;;10.62;58.72;102215.81;2393200;28;45350;-79
2022/02/22 00:18:15;;;;;;;;;13.75;8.00;;;;;10.64;58.47;102219.28;2393004;28;45552;-80
2022/02/22 00:19:26;;;;;;;;;14.25;9.25;;;;;10.62;58.62;102215.81;2393347;28;45331;-79
2022/02/22 00:20:37;;;;;;;;;15.50;10.25;;;;;10.58;58.48;102215.84;2393113;28;45295;-78
2022/02/22 00:21:47;;;;;;;;;19.00;10.50;;;;;10.60;58.62;102217.56;2393298;28;45154;-78
2022/02/22 00:22:58;;;;;;;;;15.25;9.00;;;;;10.56;58.86;102217.59;2393158;28;45246;-78
2022/02/22 00:24:08;;;;;;;;;16.50;11.50;;;;;10.57;58.55;102218.44;2393123;28;45163;-78
2022/02/22 00:25:18;;;;;;;;;18.50;10.50;;;;;10.55;58.67;102220.22;2394058;28;45308;-78
2022/02/22 00:26:29;;;;;;;;;18.00;9.50;;;;;10.55;58.83;102222.88;2393445;28;45154;-78
2022/02/22 00:27:43;;;;;;;;;21.00;11.75;;;;;10.50;58.80;102217.63;2393215;28;45199;-78
2022/02/22 00:28:54;;;;;;;;;15.00;10.00;;;;;10.52;58.68;102231.66;2393321;28;44620;-78
2022/02/22 00:30:05;;;;;;;;;14.50;6.75;;;;;10.47;58.73;102220.25;2392965;28;45377;-77
2022/02/22 00:31:15;;;;;;;;;14.75;12.25;;;;;10.48;58.56;102227.28;2393258;28;45408;-78
2022/02/22 00:32:25;;;;;;;;;18.00;10.50;;;;;10.48;58.84;102229.91;2393051;28;45529;-78
2022/02/22 00:33:36;;;;;;;;;9.75;8.00;;;;;10.47;58.87;102236.03;2393060;28;45381;-78
2022/02/22 00:34:46;;;;;;;;;22.00;16.50;;;;;10.47;59.02;102243.91;2392699;28;45299;-78
2022/02/22 00:35:57;;;;;;;;;17.00;11.00;;;;;10.43;58.95;102234.31;2393237;28;45175;-78
2022/02/22 00:37:07;;;;;;;;;13.50;10.50;;;;;10.44;59.09;102238.72;2392970;28;45678;-77
2022/02/22 00:38:18;;;;;;;;;17.50;14.25;;;;;10.40;58.81;102231.72;2393278;28;45163;-77
2022/02/22 00:39:28;;;;;;;;;15.00;10.75;;;;;10.38;59.31;102228.22;2393235;28;45310;-77
2022/02/22 00:40:39;;;;;;;;;14.50;11.00;;;;;10.35;59.33;102227.38;2393180;28;45339;-77
2022/02/22 00:41:49;;;;;;;;;15.00;9.75;;;;;10.34;59.08;102228.28;2393055;28;46018;-77
2022/02/22 00:43:00;;;;;;;;;17.50;9.75;;;;;10.35;59.51;102235.25;2393184;28;45259;-77
2022/02/22 00:44:10;;;;;;;;;18.00;9.75;;;;;10.34;59.54;102233.53;2392810;28;46154;-77
2022/02/22 00:45:20;;;;;;;;;15.25;12.50;;;;;10.35;59.44;102251.03;2396052;28;44799;-77
2022/02/22 00:46:31;;;;;;;;;12.50;9.75;;;;;10.30;60.01;102234.41;2393018;28;46215;-78
2022/02/22 00:47:41;;;;;;;;;14.50;9.50;;;;;10.29;59.50;102240.56;2393278;28;45428;-78
2022/02/22 00:48:52;;;;;;;;;15.00;8.75;;;;;10.25;59.67;102236.22;2393004;28;46199;-78
2022/02/22 00:50:04;;;;;;;;;17.75;12.75;;;;;10.27;59.63;102241.47;2393071;28;45217;-78
2022/02/22 00:51:14;;;;;;;;;12.00;11.00;;;;;10.22;59.49;102231.84;2393126;28;46356;-79
2022/02/22 00:52:25;;;;;;;;;17.50;9.75;;;;;10.23;59.76;102241.50;2393163;28;45326;-78
2022/02/22 00:53:36;;;;;;;;;13.75;10.00;;;;;10.19;59.93;102236.25;2392492;28;45309;-79
2022/02/22 00:54:46;;;;;;;;;18.50;11.50;;;;;10.18;59.78;102240.66;2393252;28;44600;-79
2022/02/22 00:55:57;;;;;;;;;19.75;11.50;;;;;10.15;59.81;102242.44;2401363;28;46468;-79
2022/02/22 00:57:07;;;;;;;;;14.00;10.00;;;;;10.13;59.86;102235.41;2396571;28;44734;-79
2022/02/22 00:58:17;;;;;;;;;18.75;13.00;;;;;10.09;59.80;102231.09;2392558;28;45388;-79
2022/02/22 00:59:28;;;;;;;;;15.25;10.00;;;;;10.09;60.09;102238.97;2383906;28;45219;-79
2022/02/22 01:00:38;;;;;;;;;12.25;7.75;;;;;10.10;60.49;102239.84;2389302;28;46335;-79
2022/02/22 01:01:48;;;;;;;;;10.50;7.50;;;;;10.09;59.67;102243.34;2393176;28;44561;-79
2022/02/22 01:02:59;;;;;;;;;16.25;10.50;;;;;10.11;59.92;102241.56;2393045;28;45257;-78
2022/02/22 01:04:09;;;;;;;;;10.25;7.75;;;;;10.08;60.22;102237.22;2392665;28;45275;-78
2022/02/22 01:05:19;;;;;;;;;9.00;8.50;;;;;10.10;60.33;102245.09;2397955;28;46326;-78
2022/02/22 01:06:30;;;;;;;;;11.50;7.50;;;;;10.08;60.81;102241.59;2393120;28;45238;-78
2022/02/22 01:07:40;;;;;;;;;15.25;9.75;;;;;10.07;60.15;102246.00;2393014;28;45274;-78
2022/02/22 01:08:51;;;;;;;;;15.75;11.00;;;;;10.06;60.30;102241.59;2392775;28;45259;-78
2022/02/22 01:10:03;;;;;;;;;14.00;8.75;;;;;10.03;60.31;102236.34;2392783;28;46044;-78
2022/02/22 01:11:13;;;;;;;;;15.75;10.00;;;;;10.03;60.56;102241.63;2392809;28;45326;-77
2022/02/22 01:12:24;;;;;;;;;18.00;11.00;;;;;10.04;60.33;102243.38;2393060;28;46275;-77
2022/02/22 01:13:34;;;;;;;;;13.50;9.75;;;;;10.07;60.20;102247.72;2393402;28;45543;-77
2022/02/22 01:14:45;;;;;;;;;11.00;10.00;;;;;10.06;60.10;102249.47;2393702;28;45303;-77
2022/02/22 01:15:56;;;;;;;;;19.50;11.25;;;;;10.08;60.44;102250.34;2394641;28;44770;-78
2022/02/22 01:17:07;;;;;;;;;11.25;7.50;;;;;10.08;60.51;102254.72;2394332;28;46372;-78
2022/02/22 01:18:17;;;;;;;;;18.00;11.00;;;;;10.07;60.23;102253.88;2394544;28;45252;-78
2022/02/22 01:19:27;;;;;;;;;12.25;7.00;;;;;10.06;60.33;102245.97;2394641;28;45442;-78
2022/02/22 01:20:38;;;;;;;;;12.00;8.00;;;;;10.10;60.35;102256.47;2394508;28;45293;-78
2022/02/22 01:21:48;;;;;;;;;14.25;9.50;;;;;10.08;60.11;102247.72;2393373;28;46061;-78
2022/02/22 01:22:59;;;;;;;;;15.50;7.25;;;;;10.09;60.07;102259.09;2392226;28;45191;-78
2022/02/22 01:24:10;;;;;;;;;9.50;8.25;;;;;10.08;60.18;102257.34;2394584;28;46485;-81
2022/02/22 01:25:21;;;;;;;;;15.25;11.75;;;;;10.09;60.36;102265.22;2399934;28;45238;-81
2022/02/22 01:26:33;;;;;;;;;13.25;11.00;;;;;10.10;60.26;102276.63;2394414;28;45369;-80
2022/02/22 01:27:43;;;;;;;;;12.00;10.75;;;;;10.08;60.51;102265.22;2394638;28;44600;-80
2022/02/22 01:28:54;;;;;;;;;11.00;10.00;;;;;10.09;60.67;102272.25;2394106;28;45424;-80
2022/02/22 01:30:07;;;;;;;;;18.25;11.00;;;;;10.08;60.34;102279.25;2394177;28;45220;-78
2022/02/22 01:31:17;;;;;;;;;13.25;8.75;;;;;10.09;60.65;102274.88;2394476;28;46502;-79
2022/02/22 01:32:28;;;;;;;;;18.00;8.00;;;;;10.06;60.59;102261.75;2394464;28;45381;-79
2022/02/22 01:33:38;;;;;;;;;14.75;13.50;;;;;10.06;60.21;102257.38;2393675;28;46360;-78
2022/02/22 01:34:48;;;;;;;;;18.25;9.50;;;;;10.03;60.25;102254.75;2394515;28;44628;-78
2022/02/22 01:35:59;;;;;;;;;18.00;11.25;;;;;10.01;60.24;102256.53;2394222;28;45561;-78
2022/02/22 01:37:09;;;;;;;;;13.00;9.50;;;;;10.00;60.32;102255.63;2394456;28;45183;-78
2022/02/22 01:38:20;;;;;;;;;14.75;8.25;;;;;9.99;60.40;102259.16;2394252;28;45416;-78
2022/02/22 01:39:30;;;;;;;;;14.25;7.50;;;;;10.00;60.23;102252.16;2394565;28;44588;-78
2022/02/22 01:40:40;;;;;;;;;14.00;9.00;;;;;9.99;60.34;102255.66;2395544;28;45437;-78
2022/02/22 01:41:51;;;;;;;;;11.00;9.00;;;;;9.98;60.81;102267.91;2394590;28;45131;-78
2022/02/22 01:43:01;;;;;;;;;15.00;8.25;;;;;9.96;60.43;102255.66;2394219;28;46367;-78
2022/02/22 01:44:15;;;;;;;;;18.00;11.00;;;;;9.96;60.76;102253.94;2394375;28;45246;-78
2022/02/22 01:45:26;;;;;;;;;18.75;11.25;;;;;9.94;60.63;102257.44;2393852;28;45336;-77
2022/02/22 01:46:36;;;;;;;;;13.25;10.25;;;;;9.97;60.85;102262.69;2394521;28;45257;-78
2022/02/22 01:47:47;;;;;;;;;17.75;11.25;;;;;9.92;60.63;102257.47;2394178;28;45269;-77
2022/02/22 01:48:58;;;;;;;;;16.50;9.50;;;;;9.93;60.66;102260.94;2394380;28;45231;-77
2022/02/22 01:50:09;;;;;;;;;14.25;10.25;;;;;9.89;60.64;102255.72;2394125;28;45344;-77
2022/02/22 01:51:19;;;;;;;;;13.25;10.75;;;;;9.90;60.71;102269.72;2393868;28;44548;-77
2022/02/22 01:52:30;;;;;;;;;17.25;10.75;;;;;9.90;60.67;102265.31;2393953;28;46364;-77
2022/02/22 01:53:40;;;;;;;;;15.00;12.00;;;;;9.90;60.86;102270.56;2394250;28;45290;-77
2022/02/22 01:54:51;;;;;;;;;12.00;7.25;;;;;9.92;60.62;102269.72;2394444;28;45231;-77
2022/02/22 01:56:02;;;;;;;;;16.75;10.75;;;;;9.91;60.95;102268.84;2394346;28;45392;-77
2022/02/22 01:57:16;;;;;;;;;22.25;13.75;;;;;9.89;60.92;102266.22;2394158;28;45518;-77
2022/02/22 01:58:28;;;;;;;;;16.25;11.75;;;;;9.84;60.68;102273.25;2394373;28;45187;-77
2022/02/22 01:59:40;;;;;;;;;16.50;12.25;;;;;9.82;61.33;102267.13;2395505;28;45479;-77
2022/02/22 02:00:51;;;;;;;;;13.75;10.00;;;;;9.81;60.77;102268.00;2399537;28;44743;-77
2022/02/22 02:02:02;;;;;;;;;15.00;10.25;;;;;9.79;60.98;102268.03;2394252;28;46446;-77
2022/02/22 02:03:14;;;;;;;;;15.50;8.75;;;;;9.81;60.93;102269.75;2402815;28;45385;-77
2022/02/22 02:04:29;;;;;;;;;14.25;9.50;;;;;9.80;61.08;102268.91;2400281;28;45490;-77
2022/02/22 02:05:40;;;;;;;;;20.75;13.50;;;;;9.81;60.92;102273.25;2394232;28;45218;-78
2022/02/22 02:06:50;;;;;;;;;16.25;10.25;;;;;9.83;61.06;102270.66;2394206;28;46309;-79
2022/02/22 02:08:00;;;;;;;;;11.25;7.75;;;;;9.83;61.11;102271.50;2394361;28;44545;-79
2022/02/22 02:09:11;;;;;;;;;12.00;10.00;;;;;9.83;60.90;102274.13;2393795;28;45275;-77
2022/02/22 02:10:21;;;;;;;;;16.25;8.00;;;;;9.79;60.97;102269.78;2394104;28;45528;-77
2022/02/22 02:11:49;;;;;;;;;13.75;10.50;;;;;9.85;61.32;102272.34;2393652;28;45405;-77
2022/02/22 02:13:00;;;;;;;;;16.00;11.25;;;;;9.82;61.08;102267.13;2393799;28;45175;-77
2022/02/22 02:14:11;;;;;;;;;9.25;9.25;;;;;9.85;60.63;102272.34;2394060;28;46472;-77
2022/02/22 02:15:21;;;;;;;;;18.00;9.75;;;;;9.84;60.80;102268.00;2394037;28;45250;-77
2022/02/22 02:16:32;;;;;;;;;12.50;10.00;;;;;9.87;61.17;102275.00;2394002;28;46522;-77
2022/02/22 02:17:42;;;;;;;;;13.00;10.50;;;;;9.84;61.25;102275.88;2394133;28;44687;-77
2022/02/22 02:18:52;;;;;;;;;14.00;8.50;;;;;9.83;61.53;102268.88;2394108;28;45347;-77
2022/02/22 02:20:08;;;;;;;;;11.50;9.75;;;;;9.84;61.03;102280.25;2394122;28;45465;-77
2022/02/22 02:21:19;;;;;;;;;15.00;11.75;;;;;9.82;61.22;102277.66;2393525;28;45561;-77
2022/02/22 02:22:29;;;;;;;;;14.25;10.25;;;;;9.85;60.91;102287.25;2393977;28;45347;-78
2022/02/22 02:23:39;;;;;;;;;12.50;10.75;;;;;9.82;61.15;102276.75;2393542;28;45235;-78
2022/02/22 02:24:50;;;;;;;;;11.25;8.50;;;;;9.82;61.07;102282.03;2392234;28;45445;-79
2022/02/22 02:26:01;;;;;;;;;14.50;11.25;;;;;9.80;60.86;102289.91;2393518;28;46175;-79
2022/02/22 02:27:11;;;;;;;;;16.25;12.50;;;;;9.81;61.06;102282.88;2394292;28;44761;-79
2022/02/22 02:28:22;;;;;;;;;17.50;8.50;;;;;9.80;61.02;102284.66;2393786;28;45353;-79
2022/02/22 02:29:32;;;;;;;;;10.25;8.00;;;;;9.83;61.27;102289.88;2393962;28;45314;-78
2022/02/22 02:30:42;;;;;;;;;13.75;12.00;;;;;9.82;61.29;102296.03;2393762;28;46165;-78
2022/02/22 02:31:55;;;;;;;;;18.50;10.25;;;;;9.82;61.41;102301.28;2393996;28;45254;-78
2022/02/22 02:33:06;;;;;;;;;16.50;10.50;;;;;9.77;61.01;102306.56;2393664;28;45467;-78
2022/02/22 02:34:21;;;;;;;;;16.25;11.00;;;;;9.82;61.24;102305.66;2394121;28;45310;-78
2022/02/22 02:35:32;;;;;;;;;18.25;12.00;;;;;9.73;61.22;102294.28;2393829;28;47281;-78
2022/02/22 02:36:43;;;;;;;;;15.75;10.50;;;;;9.73;61.08;102303.94;2393858;28;45388;-78
2022/02/22 02:37:53;;;;;;;;;17.50;11.50;;;;;9.73;61.38;102309.19;2393862;28;45818;-79
2022/02/22 02:39:06;;;;;;;;;25.00;13.25;;;;;9.70;61.45;102298.72;2393900;28;45498;-79
2022/02/22 02:40:16;;;;;;;;;13.00;10.00;;;;;9.66;61.45;102288.22;2393658;28;45296;-77
2022/02/22 02:41:27;;;;;;;;;16.25;11.00;;;;;9.71;61.09;102295.19;2398181;28;45225;-78
2022/02/22 02:42:42;;;;;;;;;14.50;7.75;;;;;9.68;61.41;102280.31;2393718;28;45511;-78
2022/02/22 02:43:52;;;;;;;;;20.75;10.75;;;;;9.72;61.18;102289.94;2394048;28;45303;-78
2022/02/22 02:45:03;;;;;;;;;17.75;11.25;;;;;9.70;61.21;102285.56;2393333;28;45433;-78
2022/02/22 02:46:14;;;;;;;;;17.25;8.25;;;;;9.68;61.17;102275.06;2394022;28;45345;-78
2022/02/22 02:47:24;;;;;;;;;15.00;10.75;;;;;9.72;61.63;102289.06;2393837;28;45411;-78
2022/02/22 02:48:35;;;;;;;;;12.75;9.00;;;;;9.68;61.46;102288.19;2394030;28;45296;-78
2022/02/22 02:49:45;;;;;;;;;13.50;10.75;;;;;9.70;61.19;102294.34;2393571;28;45540;-77
2022/02/22 02:50:56;;;;;;;;;14.25;9.75;;;;;9.68;61.24;102291.69;2393957;28;45827;-78
2022/02/22 02:52:07;;;;;;;;;14.25;10.50;;;;;9.68;61.46;102296.94;2393572;28;45352;-78
2022/02/22 02:53:18;;;;;;;;;14.00;9.25;;;;;9.66;61.31;102300.47;2393372;28;45471;-78
2022/02/22 02:54:28;;;;;;;;;10.25;5.50;;;;;9.67;61.30;102297.84;2393838;28;45265;-78
2022/02/22 02:55:38;;;;;;;;;14.25;9.00;;;;;9.67;61.29;102305.72;2394586;28;45169;-78
2022/02/22 02:56:49;;;;;;;;;12.50;9.50;;;;;9.67;61.28;102308.34;2393606;28;45332;-77
2022/02/22 02:57:59;;;;;;;;;16.00;11.75;;;;;9.68;61.24;102314.44;2393999;28;45191;-78
2022/02/22 02:59:11;;;;;;;;;23.25;12.25;;;;;9.68;61.28;102323.19;2393740;28;46304;-78
2022/02/22 03:00:21;;;;;;;;;13.50;9.50;;;;;9.68;61.19;102323.19;2393018;28;45541;-78
2022/02/22 03:01:34;;;;;;;;;11.25;9.25;;;;;9.67;61.48;102320.59;2393893;28;46258;-79
2022/02/22 03:02:44;;;;;;;;;13.25;10.00;;;;;9.63;61.79;102317.09;2393803;28;45365;-78
2022/02/22 03:03:55;;;;;;;;;18.00;13.50;;;;;9.60;61.36;102319.75;2393666;28;46419;-79
2022/02/22 03:05:06;;;;;;;;;19.75;15.25;;;;;9.61;61.73;102326.72;2393721;28;44751;-78
2022/02/22 03:06:18;;;;;;;;;11.00;8.75;;;;;9.62;61.47;102328.50;2393748;28;46510;-78
2022/02/22 03:07:28;;;;;;;;;19.50;12.00;;;;;9.61;61.97;102321.47;2393739;28;45247;-78
2022/02/22 03:08:39;;;;;;;;;19.00;12.75;;;;;9.59;61.67;102318.00;2393476;28;45279;-78
2022/02/22 03:09:49;;;;;;;;;17.00;11.50;;;;;9.56;61.52;102324.13;2393697;28;45492;-78
2022/02/22 03:10:59;;;;;;;;;18.00;12.25;;;;;9.57;61.72;102330.25;2393192;28;46280;-78
2022/02/22 03:12:10;;;;;;;;;15.75;12.25;;;;;9.60;61.55;102334.63;2393784;28;44679;-79
2022/02/22 03:13:20;;;;;;;;;18.50;14.25;;;;;9.56;62.04;102328.50;2394405;28;46727;-79
2022/02/22 03:14:30;;;;;;;;;20.50;12.25;;;;;9.58;61.39;102326.72;2393724;28;45221;-79
2022/02/22 03:15:41;;;;;;;;;17.00;8.75;;;;;9.54;61.71;102319.75;2393253;28;46307;-79
2022/02/22 03:16:51;;;;;;;;;11.25;9.75;;;;;9.53;62.02;102318.88;2394611;28;45448;-78
2022/02/22 03:18:02;;;;;;;;;20.50;12.75;;;;;9.52;61.76;102313.63;2393662;28;45480;-78
2022/02/22 03:19:12;;;;;;;;;17.75;11.50;;;;;9.54;61.94;102306.63;2393435;28;44679;-78
2022/02/22 03:20:22;;;;;;;;;15.50;10.25;;;;;9.55;62.05;102313.63;2393260;28;45448;-77
2022/02/22 03:21:33;;;;;;;;;24.00;14.25;;;;;9.54;61.76;102306.63;2393659;28;45237;-78
2022/02/22 03:22:45;;;;;;;;;18.75;12.50;;;;;9.52;62.06;102305.75;2393464;28;45411;-79
2022/02/22 03:23:56;;;;;;;;;20.75;12.25;;;;;9.54;62.07;102319.75;2393528;28;45281;-78
2022/02/22 03:25:07;;;;;;;;;19.50;12.00;;;;;9.51;61.80;102319.75;2393599;28;45467;-79
2022/02/22 03:26:17;;;;;;;;;17.00;10.75;;;;;9.48;62.05;102315.41;2393692;28;45176;-79
2022/02/22 03:27:27;;;;;;;;;19.25;10.50;;;;;9.46;62.13;102314.50;2393469;28;45241;-79
2022/02/22 03:28:38;;;;;;;;;15.75;11.75;;;;;9.48;62.15;102314.53;2393440;28;45230;-79
2022/02/22 03:29:48;;;;;;;;;19.00;12.50;;;;;9.50;62.07;102321.53;2393137;28;46446;-78
2022/02/22 03:31:00;;;;;;;;;17.00;12.50;;;;;9.50;61.94;102315.41;2393243;28;44714;-77
2022/02/22 03:32:11;;;;;;;;;17.75;10.00;;;;;9.47;62.12;102316.28;2393552;28;45307;-77
2022/02/22 03:33:21;;;;;;;;;11.75;10.50;;;;;9.46;62.33;102314.50;2397101;28;45321;-77
2022/02/22 03:34:32;;;;;;;;;14.50;11.75;;;;;9.43;62.18;102312.78;2398195;28;45383;-77
2022/02/22 03:35:43;;;;;;;;;17.75;13.50;;;;;9.42;62.00;102311.03;2393131;28;45264;-77
2022/02/22 03:36:53;;;;;;;;;22.75;16.50;;;;;9.40;62.37;102312.81;2393465;28;45409;-77
2022/02/22 03:38:04;;;;;;;;;22.00;11.50;;;;;9.40;62.08;102311.94;2393806;28;45225;-77
2022/02/22 03:39:14;;;;;;;;;21.75;13.25;;;;;9.38;62.05;102319.81;2388161;28;46430;-77
2022/02/22 03:40:25;;;;;;;;;12.75;10.50;;;;;9.37;62.83;102310.19;2393557;28;44671;-77
2022/02/22 03:41:35;;;;;;;;;16.00;12.25;;;;;9.39;62.55;102315.41;2393482;28;46585;-77
2022/02/22 03:42:46;;;;;;;;;20.25;13.00;;;;;9.38;62.47;102314.56;2393495;28;45207;-77
2022/02/22 03:43:56;;;;;;;;;15.00;11.25;;;;;9.39;62.23;102310.16;2393350;28;45561;-77
2022/02/22 03:45:07;;;;;;;;;14.00;9.50;;;;;9.38;62.27;102319.81;2393384;28;44609;-77
2022/02/22 03:46:17;;;;;;;;;22.50;13.00;;;;;9.36;62.36;102318.91;2393226;28;45299;-77
2022/02/22 03:47:28;;;;;;;;;17.00;13.25;;;;;9.36;62.39;102320.69;2393236;28;45220;-77
2022/02/22 03:48:39;;;;;;;;;31.00;16.25;;;;;9.32;63.05;102315.44;2393247;28;45421;-77
2022/02/22 03:49:49;;;;;;;;;16.50;12.00;;;;;9.31;62.58;102312.84;2393214;28;44786;-77
2022/02/22 03:51:00;;;;;;;;;19.50;11.25;;;;;9.30;62.50;102316.31;2393352;28;45524;-78
2022/02/22 03:52:10;;;;;;;;;20.75;13.50;;;;;9.31;62.83;102311.06;2393467;28;45219;-77
2022/02/22 03:53:21;;;;;;;;;15.25;9.00;;;;;9.33;62.80;102316.31;2393591;28;46287;-78
2022/02/22 03:54:31;;;;;;;;;19.50;12.25;;;;;9.31;62.49;102310.22;2393105;28;44620;-78
2022/02/22 03:55:43;;;;;;;;;18.25;14.25;;;;;9.33;62.75;102316.31;2392508;28;46453;-78
2022/02/22 03:56:53;;;;;;;;;11.75;8.75;;;;;9.34;62.67;102312.81;2393305;28;45342;-78
2022/02/22 03:58:03;;;;;;;;;22.00;10.75;;;;;9.37;62.61;102319.78;2393308;28;45388;-78
2022/02/22 03:59:14;;;;;;;;;21.25;15.75;;;;;9.34;62.29;102316.31;2393245;28;45214;-78
2022/02/22 04:00:26;;;;;;;;;18.25;12.75;;;;;9.36;63.44;102312.81;2393090;28;45436;-78
2022/02/22 04:01:36;;;;;;;;;20.00;15.75;;;;;9.32;62.82;102312.81;2393466;28;45245;-78
2022/02/22 04:02:47;;;;;;;;;25.25;14.25;;;;;9.35;62.83;102319.81;2393248;28;46193;-78
2022/02/22 04:03:57;;;;;;;;;22.50;12.50;;;;;9.35;62.55;102319.81;2393347;28;45198;-78
2022/02/22 04:05:09;;;;;;;;;16.00;12.25;;;;;9.34;63.02;102318.94;2392870;28;45334;-78
2022/02/22 04:06:19;;;;;;;;;17.00;11.25;;;;;9.35;62.45;102317.19;2393453;28;45244;-78
2022/02/22 04:07:29;;;;;;;;;9.50;9.50;;;;;9.34;62.55;102312.81;2393308;28;45251;-78
2022/02/22 04:08:40;;;;;;;;;14.50;10.75;;;;;9.37;62.89;102318.06;2393395;28;45236;-78
2022/02/22 04:09:51;;;;;;;;;16.50;10.25;;;;;9.36;62.41;102318.06;2392659;28;46417;-80
2022/02/22 04:11:01;;;;;;;;;18.00;15.00;;;;;9.37;62.30;102309.31;2393231;28;44624;-79
2022/02/22 04:12:12;;;;;;;;;17.75;12.75;;;;;9.37;62.67;102301.44;2393260;28;46439;-79
2022/02/22 04:13:23;;;;;;;;;22.75;15.50;;;;;9.39;62.73;102303.16;2393098;28;45350;-78
2022/02/22 04:14:33;;;;;;;;;15.00;12.00;;;;;9.43;62.59;102311.94;2393100;28;46309;-78
2022/02/22 04:15:43;;;;;;;;;16.75;11.75;;;;;9.44;62.66;102304.03;2393247;28;45183;-79
2022/02/22 04:16:54;;;;;;;;;16.75;12.00;;;;;9.45;62.70;102305.78;2392848;28;45380;-79
2022/02/22 04:18:04;;;;;;;;;15.25;11.75;;;;;9.50;62.96;102310.16;2393425;28;44758;-79
2022/02/22 04:19:16;;;;;;;;;20.75;13.00;;;;;9.48;62.60;102309.28;2393523;28;46400;-79
2022/02/22 04:20:27;;;;;;;;;16.75;13.50;;;;;9.48;62.50;102304.91;2393309;28;45144;-79
2022/02/22 04:21:37;;;;;;;;;19.50;15.25;;;;;9.50;62.51;102308.41;2393071;28;45310;-79
2022/02/22 04:22:48;;;;;;;;;15.75;11.75;;;;;9.53;62.75;102305.75;2393321;28;45369;-80
2022/02/22 04:23:58;;;;;;;;;13.25;11.00;;;;;9.56;62.51;102308.38;2393197;28;45635;-81
2022/02/22 04:25:09;;;;;;;;;18.50;13.75;;;;;9.59;62.35;102307.47;2393433;28;44648;-81
2022/02/22 04:26:20;;;;;;;;;15.75;11.00;;;;;9.64;62.54;102310.97;2393080;28;45599;-80
2022/02/22 04:27:30;;;;;;;;;21.50;13.00;;;;;9.64;62.16;102310.09;2393395;28;45148;-81
2022/02/22 04:28:41;;;;;;;;;14.75;10.75;;;;;9.64;62.09;102310.97;2393099;28;45266;-81
2022/02/22 04:29:51;;;;;;;;;13.50;10.00;;;;;9.66;62.29;102317.09;2392483;28;45453;-80
2022/02/22 04:31:01;;;;;;;;;16.00;12.75;;;;;9.65;62.21;102317.97;2393147;28;46183;-80
2022/02/22 04:32:12;;;;;;;;;14.25;11.25;;;;;9.66;62.01;102322.34;2393262;28;45419;-80
2022/02/22 04:33:22;;;;;;;;;12.50;10.75;;;;;9.68;62.33;102322.31;2393298;28;45411;-80
2022/02/22 04:34:33;;;;;;;;;14.00;11.00;;;;;9.67;62.24;102329.34;2393248;28;45343;-80
2022/02/22 04:35:44;;;;;;;;;15.25;10.75;;;;;9.69;61.97;102326.72;2392257;28;46140;-80
2022/02/22 04:36:54;;;;;;;;;20.00;11.75;;;;;9.70;62.23;102331.09;2392754;28;45258;-80
2022/02/22 04:38:05;;;;;;;;;19.00;10.25;;;;;9.70;61.99;102333.72;2392812;28;45545;-80
2022/02/22 04:39:15;;;;;;;;;15.25;10.00;;;;;9.68;61.95;102331.06;2393301;28;45411;-80
2022/02/22 04:40:26;;;;;;;;;19.75;10.25;;;;;9.71;62.34;102329.31;2393172;28;45429;-80
2022/02/22 04:41:37;;;;;;;;;14.50;12.75;;;;;9.71;62.09;102334.56;2392943;28;44778;-80
2022/02/22 04:42:49;;;;;;;;;15.50;12.75;;;;;9.72;62.15;102331.06;2392881;28;46639;-80
2022/02/22 04:43:59;;;;;;;;;9.75;8.50;;;;;9.72;62.32;102324.06;2395663;28;45396;-80
2022/02/22 04:45:09;;;;;;;;;19.50;11.50;;;;;9.74;62.10;102331.94;2395631;28;46172;-81
2022/02/22 04:46:20;;;;;;;;;13.75;9.25;;;;;9.74;61.93;102324.94;2393260;28;45267;-81
2022/02/22 04:47:30;;;;;;;;;19.75;13.50;;;;;9.71;61.99;102319.69;2393166;28;46368;-81
2022/02/22 04:48:41;;;;;;;;;12.50;10.75;;;;;9.73;61.88;102331.06;2395114;28;45231;-80
2022/02/22 04:49:51;;;;;;;;;15.00;12.25;;;;;9.76;61.92;102333.69;2394509;28;46279;-80
2022/02/22 04:51:02;;;;;;;;;14.75;11.25;;;;;9.72;62.24;102325.81;2394862;28;45269;-80
2022/02/22 04:52:12;;;;;;;;;17.50;10.50;;;;;9.75;62.29;102331.06;2394651;28;45337;-80
2022/02/22 04:53:22;;;;;;;;;14.00;10.25;;;;;9.75;61.83;102328.44;2394623;28;45382;-80
2022/02/22 04:54:33;;;;;;;;;19.00;11.25;;;;;9.79;61.80;102328.44;2395769;28;45331;-79
2022/02/22 04:55:43;;;;;;;;;17.50;14.25;;;;;9.83;62.09;102336.31;2394373;28;44739;-80
2022/02/22 04:56:54;;;;;;;;;11.25;9.00;;;;;9.80;61.76;102331.94;2393801;28;46595;-80
2022/02/22 04:58:04;;;;;;;;;14.00;9.50;;;;;9.87;61.83;102338.03;2393982;28;44763;-80
2022/02/22 04:59:15;;;;;;;;;18.00;11.75;;;;;9.85;62.04;102334.53;2394577;28;45337;-80
2022/02/22 05:00:25;;;;;;;;;16.50;11.00;;;;;9.88;61.80;102340.63;2394511;28;45259;-80
2022/02/22 05:01:36;;;;;;;;;13.00;10.50;;;;;9.87;61.77;102343.28;2394501;28;46569;-79
2022/02/22 05:02:46;;;;;;;;;16.50;10.50;;;;;9.86;62.16;102342.41;2394767;28;45404;-79
2022/02/22 05:03:56;;;;;;;;;20.00;10.50;;;;;9.87;61.75;102344.16;2394544;28;46315;-79
2022/02/22 05:05:08;;;;;;;;;20.25;15.00;;;;;9.90;61.89;102343.28;2394801;28;44593;-78
2022/02/22 05:06:19;;;;;;;;;15.00;11.25;;;;;9.91;61.76;102342.38;2394138;28;45411;-77
2022/02/22 05:07:29;;;;;;;;;15.25;10.50;;;;;9.93;61.58;102348.50;2394492;28;45219;-78
2022/02/22 05:08:39;;;;;;;;;20.50;11.50;;;;;9.93;61.42;102337.09;2394580;28;46184;-78
2022/02/22 05:09:50;;;;;;;;;17.00;11.75;;;;;9.94;61.65;102338.88;2394469;28;45171;-77
2022/02/22 05:11:00;;;;;;;;;6.75;6.75;;;;;9.94;61.65;102344.13;2394487;28;46223;-77
2022/02/22 05:12:11;;;;;;;;;14.50;11.00;;;;;9.97;61.80;102341.47;2394743;28;45289;-77
2022/02/22 05:13:21;;;;;;;;;18.25;10.00;;;;;9.95;61.56;102344.09;2394296;28;45560;-77
2022/02/22 05:14:32;;;;;;;;;15.75;11.50;;;;;9.95;61.64;102345.88;2394289;28;45305;-78
2022/02/22 05:15:42;;;;;;;;;18.25;12.00;;;;;9.96;61.60;102344.97;2394494;28;45467;-78
2022/02/22 05:16:52;;;;;;;;;15.75;11.75;;;;;9.96;61.38;102342.34;2393814;28;44692;-78
2022/02/22 05:18:04;;;;;;;;;17.00;10.25;;;;;9.98;61.55;102345.84;2393085;28;46857;-77
2022/02/22 05:19:14;;;;;;;;;19.25;9.25;;;;;9.98;61.60;102343.22;2395799;28;45347;-78
2022/02/22 05:20:24;;;;;;;;;17.75;9.75;;;;;9.95;61.46;102338.00;2403348;28;45398;-79
2022/02/22 05:21:35;;;;;;;;;16.25;8.50;;;;;9.96;61.16;102337.09;2400618;28;45234;-79
2022/02/22 05:22:46;;;;;;;;;15.00;9.75;;;;;9.95;61.15;102346.72;2394506;28;46305;-80
2022/02/22 05:23:57;;;;;;;;;16.00;11.25;;;;;9.94;61.16;102347.63;2394573;28;45279;-80
2022/02/22 05:25:08;;;;;;;;;15.00;11.50;;;;;9.93;61.55;102351.13;2394397;28;45169;-80